Aeroporto :
LOGIN :

Iscrizione | Disclaimer

   EN    FR    IT 

 










Sommario :    VFR   VFR Marginale   IFR   IFR Intensivo   IFR Molto Intensivo
Visibilità : 
Base nubi : 
>= 8 km
>= 3000ft
5 / 8 km
1000 / 3000 ft
1500m / 5 km
500 / 1000 ft
800 / 1500m
200 / 500 ft
< 800m
< 200 ft
Simboli :   Temporali  Nebbia  Neve Forte  Precipitazioni Forti  Vento > 20 kt
SIGMETs :   Varie  Temporali  Ghiacco  Turbolenza  Onda orograficha  Ceneri Vulcaniche







- Altitudine del aeroporto : 7 ft
- Codice IATA : VCE


LIPZ - Marco Polo Int. Venezia

ULTIMO METAR :
  • 201920Z 12006KT CAVOK 26/22 Q1011 NOSIG

METARs OBSOLETI :
  • 201850Z 13008KT CAVOK 26/22 Q1010 NOSIG
  • 201820Z 13008KT CAVOK 27/21 Q1010 NOSIG
  • 201750Z 13006KT 100V180 CAVOK 27/21 Q1010 NOSIG
  • 201720Z 12007KT CAVOK 28/21 Q1010 NOSIG
  • 201650Z VRB04KT 9999 VCTS FEW045CB 28/21 Q1010 NOSIG
  • 201620Z 15006KT 120V210 9999 VCTS FEW040 FEW050CB 29/21 Q1010 TEMPO TS

TAF TAF LIPZ
Valido dal 20 a 18 ore il 22 a 00 ore UTC


201700Z 2018/2124 VRB05KT 9999 SCT060
PROB40
TEMPO 2018/2020 TSRA
BECMG 2112/2114 13010KT
Nessun NOTAM noto per questo aeroporto.



MetMap, La meteo Aeronautica in un colpo d'occhio ! - Copyright ORBIFLY Dicembre 2007 - Disclaimer

ORBIFLY MET'MAP TEAM :

Programmazione e sviluppo : Alexandra Zaïnal
Concezione e sviluppo : Baudouin d'Aumeries
Co-Programmazione e sviluppo : Marc-Olivier Méhu
Supporto tecnico e logistico : Manuel Goepfert
Aiuto per la traduzione : Arnaldo La Scala

Contatto : metmap@orbifly.com




FONTI E CREDITI :

   NOAA